createdAt,value
2024-03-08T00:02:16.756Z,82.35
2024-03-08T00:04:43.695Z,81.94
2024-03-08T00:07:10.376Z,82.72
2024-03-08T00:09:37.624Z,81.67
2024-03-08T00:12:04.518Z,81.21
2024-03-08T00:14:31.291Z,80.45
2024-03-08T00:16:58.012Z,80.92
2024-03-08T00:19:24.732Z,81.84
2024-03-08T00:21:51.426Z,82.19
2024-03-08T00:24:18.149Z,82.79
2024-03-08T00:26:44.901Z,83.10
2024-03-08T00:29:11.657Z,83.20
2024-03-08T00:31:38.364Z,82.93
2024-03-08T00:34:05.130Z,82.58
2024-03-08T00:36:31.812Z,82.42
2024-03-08T00:38:58.574Z,82.12
2024-03-08T00:41:27.708Z,81.73
2024-03-08T00:43:54.475Z,81.07
2024-03-08T00:46:21.233Z,81.63
2024-03-08T00:48:48.614Z,82.35
2024-03-08T00:51:16.566Z,84.12
2024-03-08T00:53:44.426Z,84.55
2024-03-08T00:56:14.313Z,84.50
2024-03-08T00:58:41.375Z,84.35
2024-03-08T01:01:08.159Z,84.29
2024-03-08T01:03:35.562Z,84.53
2024-03-08T01:06:02.587Z,83.68
2024-03-08T01:08:29.502Z,83.84
2024-03-08T01:10:56.275Z,83.95
2024-03-08T01:13:23.005Z,84.05
2024-03-08T01:15:49.674Z,83.25
2024-03-08T01:18:16.442Z,83.09
2024-03-08T01:20:43.189Z,82.87
2024-03-08T01:23:10.175Z,83.32
2024-03-08T01:25:36.862Z,83.83
2024-03-08T01:28:03.765Z,84.04
2024-03-08T01:30:30.537Z,83.77
2024-03-08T01:32:57.255Z,83.21
2024-03-08T01:35:24.117Z,82.98
2024-03-08T01:37:50.845Z,82.43
2024-03-08T01:40:18.031Z,83.33
2024-03-08T01:42:46.104Z,83.69
2024-03-08T01:45:13.030Z,83.23
2024-03-08T01:47:40.091Z,83.36
2024-03-08T01:50:07.589Z,83.20
2024-03-08T01:52:35.591Z,83.52
2024-03-08T01:55:03.795Z,85.13
2024-03-08T01:57:32.602Z,86.09
2024-03-08T01:59:59.355Z,86.99
2024-03-08T02:02:26.545Z,87.02
2024-03-08T02:04:54.390Z,86.43
2024-03-08T02:07:21.194Z,86.67
2024-03-08T02:09:47.911Z,86.78
2024-03-08T02:12:15.095Z,86.78
2024-03-08T02:14:42.038Z,86.80
2024-03-08T02:17:08.967Z,85.99
2024-03-08T02:19:37.539Z,86.59
2024-03-08T02:22:05.663Z,85.96
2024-03-08T02:24:33.678Z,85.34
2024-03-08T02:27:00.595Z,85.93
2024-03-08T02:29:27.394Z,85.82
2024-03-08T02:31:54.136Z,85.25
2024-03-08T02:34:21.349Z,83.86
2024-03-08T02:36:48.188Z,83.71
2024-03-08T02:39:15.143Z,83.94
2024-03-08T02:41:41.939Z,83.15
2024-03-08T02:44:08.687Z,83.52
2024-03-08T02:46:37.041Z,84.08
2024-03-08T02:49:03.845Z,86.97
2024-03-08T02:51:32.049Z,88.36
2024-03-08T02:53:58.838Z,88.84
2024-03-08T02:56:25.608Z,90.64
2024-03-08T02:58:52.280Z,89.64
2024-03-08T03:01:21.615Z,89.06
2024-03-08T03:03:48.435Z,89.00
2024-03-08T03:06:15.177Z,89.78
2024-03-08T03:08:44.024Z,90.83
2024-03-08T03:11:10.762Z,90.82
2024-03-08T03:13:37.443Z,91.02
2024-03-08T03:16:04.721Z,91.99
2024-03-08T03:18:31.587Z,91.84
2024-03-08T03:20:58.304Z,90.29
2024-03-08T03:23:27.168Z,89.09
2024-03-08T03:25:53.827Z,88.70
2024-03-08T03:28:22.947Z,88.65
2024-03-08T03:30:49.707Z,88.31
2024-03-08T03:33:17.941Z,88.49
2024-03-08T03:35:45.368Z,87.20
2024-03-08T03:38:12.381Z,86.41
2024-03-08T03:40:41.478Z,85.89
2024-03-08T03:43:09.165Z,85.29
2024-03-08T03:45:37.460Z,85.32
2024-03-08T03:48:08.128Z,85.49
2024-03-08T03:50:36.520Z,84.42
2024-03-08T03:53:04.746Z,84.16
2024-03-08T03:55:31.325Z,86.01
2024-03-08T03:58:00.257Z,85.39
2024-03-08T04:00:28.452Z,85.40
2024-03-08T04:02:56.235Z,85.76
2024-03-08T04:05:23.029Z,86.65
2024-03-08T04:07:49.731Z,87.73
2024-03-08T04:10:16.488Z,87.98
2024-03-08T04:12:43.442Z,89.36
2024-03-08T04:15:12.500Z,88.87
2024-03-08T04:17:39.897Z,88.16
2024-03-08T04:20:11.530Z,86.84
2024-03-08T04:22:39.093Z,85.28
2024-03-08T04:25:06.980Z,84.45
2024-03-08T04:27:34.416Z,85.02
2024-03-08T04:30:02.163Z,86.66
2024-03-08T04:32:31.449Z,86.35
2024-03-08T04:34:58.550Z,85.94
2024-03-08T04:37:26.331Z,85.73
2024-03-08T04:39:53.467Z,85.92
2024-03-08T04:42:20.308Z,86.58
2024-03-08T04:44:47.148Z,86.75
2024-03-08T04:47:14.043Z,86.14
2024-03-08T04:49:40.758Z,86.30
2024-03-08T04:52:08.302Z,85.69
2024-03-08T04:54:35.690Z,85.96
2024-03-08T04:57:05.262Z,87.70
2024-03-08T04:59:33.910Z,88.13
2024-03-08T05:02:00.898Z,88.10
2024-03-08T05:04:27.707Z,89.08
2024-03-08T05:06:54.911Z,91.16
2024-03-08T05:09:22.195Z,92.46
2024-03-08T05:11:49.177Z,92.64
2024-03-08T05:14:21.395Z,92.60
2024-03-08T05:16:51.458Z,93.10
2024-03-08T05:19:19.600Z,94.54
2024-03-08T05:21:50.394Z,94.46
2024-03-08T05:24:18.325Z,93.89
2024-03-08T05:26:46.216Z,94.53
2024-03-08T05:29:13.940Z,94.32
2024-03-08T05:31:50.445Z,94.92
2024-03-08T05:34:23.620Z,95.03
2024-03-08T05:36:51.752Z,93.98
2024-03-08T05:39:20.951Z,93.93
2024-03-08T05:41:48.832Z,94.43
2024-03-08T05:44:15.932Z,93.86
2024-03-08T05:46:42.657Z,93.46
2024-03-08T05:49:11.947Z,93.04
2024-03-08T05:51:43.169Z,93.32
2024-03-08T05:54:12.245Z,93.78
2024-03-08T05:56:43.598Z,93.68
2024-03-08T05:59:11.030Z,93.09
2024-03-08T06:01:37.876Z,93.09
2024-03-08T06:04:05.269Z,92.38
2024-03-08T06:06:32.201Z,91.56
2024-03-08T06:09:00.079Z,91.29
2024-03-08T06:11:31.875Z,90.92
2024-03-08T06:14:01.476Z,90.70
2024-03-08T06:16:31.547Z,89.76
2024-03-08T06:18:58.715Z,88.77
2024-03-08T06:21:27.402Z,87.35
2024-03-08T06:23:59.103Z,86.82
2024-03-08T06:26:29.867Z,86.07
2024-03-08T06:28:57.893Z,85.75
2024-03-08T06:31:24.966Z,85.38
2024-03-08T06:33:52.041Z,85.55
2024-03-08T06:36:22.863Z,84.58
2024-03-08T06:38:50.672Z,85.26
2024-03-08T06:41:17.756Z,85.34
2024-03-08T06:43:45.332Z,84.89
2024-03-08T06:46:13.941Z,85.49
2024-03-08T06:48:41.176Z,85.69
2024-03-08T06:51:08.505Z,85.49
2024-03-08T06:53:39.944Z,84.98
2024-03-08T06:56:08.427Z,84.76
2024-03-08T06:58:35.156Z,85.29
2024-03-08T07:01:05.457Z,84.74
2024-03-08T07:03:33.776Z,84.64
2024-03-08T07:06:02.939Z,84.25
2024-03-08T07:08:29.804Z,83.61
2024-03-08T07:10:56.786Z,81.56
2024-03-08T07:13:23.543Z,81.32
2024-03-08T07:15:50.237Z,80.69
2024-03-08T07:18:17.145Z,79.55
2024-03-08T07:20:45.127Z,79.56
2024-03-08T07:23:12.081Z,78.56
2024-03-08T07:25:40.706Z,78.46
2024-03-08T07:28:10.841Z,78.02
2024-03-08T07:30:45.833Z,78.25
2024-03-08T07:33:13.960Z,76.08
2024-03-08T07:35:41.863Z,76.27
2024-03-08T07:38:11.290Z,77.96
2024-03-08T07:40:45.630Z,76.37
2024-03-08T07:43:12.869Z,76.83
2024-03-08T07:45:40.125Z,76.17
2024-03-08T07:48:14.481Z,76.25
2024-03-08T07:50:42.361Z,75.89
2024-03-08T07:53:09.608Z,75.34
2024-03-08T07:55:37.399Z,76.33
2024-03-08T07:58:04.731Z,76.23
2024-03-08T08:00:32.912Z,73.62
2024-03-08T08:03:00.133Z,68.93
2024-03-08T08:05:27.645Z,68.91
2024-03-08T08:07:54.957Z,66.61
2024-03-08T08:10:26.617Z,68.43
2024-03-08T08:12:53.955Z,68.44
2024-03-08T08:15:21.430Z,66.96
2024-03-08T08:17:48.900Z,63.23
2024-03-08T08:20:16.441Z,63.52
2024-03-08T08:22:46.414Z,64.20
2024-03-08T08:25:16.825Z,60.85
2024-03-08T08:27:43.880Z,58.88
2024-03-08T08:30:12.519Z,57.69
2024-03-08T08:32:50.023Z,58.37
2024-03-08T08:35:17.432Z,57.95
2024-03-08T08:37:45.393Z,58.37
2024-03-08T08:40:16.404Z,58.18
2024-03-08T08:42:43.975Z,55.93
2024-03-08T08:45:16.108Z,56.77
2024-03-08T08:47:46.760Z,55.26
2024-03-08T08:50:14.186Z,56.09
2024-03-08T08:52:41.573Z,54.87
2024-03-08T08:55:08.941Z,53.57
2024-03-08T08:57:36.499Z,54.62
2024-03-08T09:00:08.521Z,55.85
2024-03-08T09:02:35.905Z,54.20
2024-03-08T09:05:03.340Z,55.87
2024-03-08T09:07:30.896Z,55.45
2024-03-08T09:09:59.863Z,54.26
2024-03-08T09:12:27.357Z,56.25
2024-03-08T09:14:54.139Z,56.27
2024-03-08T09:17:23.771Z,55.78
2024-03-08T09:19:51.582Z,56.36
2024-03-08T09:22:19.674Z,57.19
2024-03-08T09:24:47.042Z,55.23
2024-03-08T09:27:15.014Z,54.27
2024-03-08T09:29:41.775Z,54.26
2024-03-08T09:32:08.792Z,52.90
2024-03-08T09:34:38.061Z,52.50
2024-03-08T09:37:05.812Z,52.77
2024-03-08T09:39:34.782Z,51.37
2024-03-08T09:42:03.103Z,51.57
2024-03-08T09:44:32.964Z,52.57
2024-03-08T09:47:00.949Z,50.94
2024-03-08T09:49:27.885Z,51.43
2024-03-08T09:51:54.995Z,51.56
2024-03-08T09:54:25.980Z,52.07
2024-03-08T09:56:53.434Z,50.17
2024-03-08T09:59:29.372Z,48.34
2024-03-08T10:02:00.968Z,47.95
2024-03-08T10:04:29.877Z,46.85
2024-03-08T10:06:58.143Z,46.83
2024-03-08T10:09:26.382Z,45.81
2024-03-08T10:11:57.232Z,46.70
2024-03-08T10:14:23.997Z,46.52
2024-03-08T10:16:50.726Z,45.49
2024-03-08T10:19:18.209Z,45.96
2024-03-08T10:21:53.263Z,46.17
2024-03-08T10:24:20.062Z,44.62
2024-03-08T10:26:47.160Z,43.73
2024-03-08T10:29:16.863Z,42.71
2024-03-08T10:31:46.704Z,42.23
2024-03-08T10:34:13.784Z,42.12
2024-03-08T10:36:42.243Z,41.28
2024-03-08T10:39:25.500Z,44.07
2024-03-08T10:42:01.528Z,43.59
2024-03-08T10:44:28.233Z,42.47
2024-03-08T10:47:20.478Z,41.35
2024-03-08T10:50:05.576Z,43.65
2024-03-08T10:52:33.315Z,41.48
2024-03-08T10:55:00.761Z,42.01
2024-03-08T10:57:28.710Z,41.44
2024-03-08T10:59:59.242Z,41.53
2024-03-08T11:02:28.619Z,42.79
2024-03-08T11:04:57.996Z,41.29
2024-03-08T11:07:28.667Z,40.75
2024-03-08T11:09:57.574Z,40.84
2024-03-08T11:12:31.059Z,41.74
2024-03-08T11:15:02.408Z,42.32
2024-03-08T11:17:29.228Z,42.75
2024-03-08T11:20:06.578Z,41.59
2024-03-08T11:22:34.955Z,42.13
2024-03-08T11:25:11.408Z,41.20
2024-03-08T11:27:38.727Z,41.26
2024-03-08T11:30:16.187Z,41.79
2024-03-08T11:32:49.185Z,40.10
2024-03-08T11:35:21.735Z,41.00
2024-03-08T11:37:49.417Z,42.55
2024-03-08T11:40:17.651Z,43.55
2024-03-08T11:42:49.184Z,43.90
2024-03-08T11:45:18.827Z,43.46
2024-03-08T11:47:50.762Z,43.34
2024-03-08T11:50:20.482Z,43.70
2024-03-08T11:52:47.834Z,43.35
2024-03-08T11:55:15.106Z,43.12
2024-03-08T11:57:43.448Z,42.77
2024-03-08T12:00:27.057Z,41.57
2024-03-08T12:03:11.822Z,41.10
2024-03-08T12:05:39.344Z,41.88
2024-03-08T12:08:08.420Z,42.28
2024-03-08T12:10:36.548Z,43.19
2024-03-08T12:13:12.655Z,42.51
2024-03-08T12:15:40.724Z,42.83
2024-03-08T12:18:08.706Z,42.13
2024-03-08T12:20:35.600Z,43.01
2024-03-08T12:23:03.600Z,43.73
2024-03-08T12:25:37.866Z,43.14
2024-03-08T12:28:14.638Z,43.62
2024-03-08T12:30:54.313Z,43.74
2024-03-08T12:33:21.481Z,44.48
2024-03-08T12:35:56.023Z,46.36
2024-03-08T12:38:27.129Z,45.77
2024-03-08T12:41:00.462Z,44.95
2024-03-08T12:43:27.498Z,45.21
2024-03-08T12:45:55.904Z,46.05
2024-03-08T12:48:22.649Z,46.31
2024-03-08T12:50:49.466Z,45.79
2024-03-08T12:53:16.424Z,45.62
2024-03-08T12:55:43.235Z,45.92
2024-03-08T12:58:10.804Z,43.82
2024-03-08T13:00:37.925Z,44.73
2024-03-08T13:03:05.052Z,44.95
2024-03-08T13:05:31.609Z,45.00
2024-03-08T13:07:58.778Z,46.49
2024-03-08T13:10:25.632Z,47.49
2024-03-08T13:12:54.809Z,46.27
2024-03-08T13:15:21.948Z,46.18
2024-03-08T13:17:50.035Z,46.11
2024-03-08T13:20:27.668Z,45.46
2024-03-08T13:23:00.502Z,44.64
2024-03-08T13:25:27.419Z,45.06
2024-03-08T13:27:57.238Z,45.03
2024-03-08T13:30:25.590Z,45.45
2024-03-08T13:32:56.054Z,45.08
2024-03-08T13:35:25.834Z,45.40
2024-03-08T13:37:52.984Z,44.71
2024-03-08T13:40:21.431Z,45.07
2024-03-08T13:42:50.366Z,45.94
2024-03-08T13:45:25.225Z,46.85
2024-03-08T13:47:55.779Z,46.70
2024-03-08T13:50:23.293Z,48.46
2024-03-08T13:52:56.197Z,47.27
2024-03-08T13:55:26.944Z,47.19
2024-03-08T13:57:54.318Z,48.19
2024-03-08T14:00:24.139Z,47.08
2024-03-08T14:02:50.896Z,47.52
2024-03-08T14:05:19.058Z,48.12
2024-03-08T14:07:51.016Z,46.11
2024-03-08T14:10:21.814Z,47.15
2024-03-08T14:12:51.668Z,47.61
2024-03-08T14:15:18.721Z,47.89
2024-03-08T14:17:47.440Z,48.03
2024-03-08T14:20:14.336Z,48.19
2024-03-08T14:22:41.067Z,47.40
2024-03-08T14:25:10.232Z,48.85
2024-03-08T14:27:36.946Z,48.46
2024-03-08T14:30:04.451Z,48.42
2024-03-08T14:32:31.126Z,48.77
2024-03-08T14:34:57.861Z,48.25
2024-03-08T14:37:29.369Z,48.91
2024-03-08T14:39:57.504Z,48.13
2024-03-08T14:42:24.341Z,48.56
2024-03-08T14:44:54.983Z,47.99
2024-03-08T14:47:23.527Z,48.93
2024-03-08T14:49:50.505Z,47.68
2024-03-08T14:52:29.568Z,48.64
2024-03-08T14:54:57.284Z,48.68
2024-03-08T14:57:24.059Z,49.08
2024-03-08T14:59:51.474Z,49.39
2024-03-08T15:02:20.531Z,48.66
2024-03-08T15:04:58.544Z,49.32
2024-03-08T15:07:32.141Z,49.13
2024-03-08T15:09:58.953Z,49.54
2024-03-08T15:12:27.327Z,50.14
2024-03-08T15:14:56.495Z,50.05
2024-03-08T15:17:24.097Z,50.63
2024-03-08T15:19:51.234Z,50.08
2024-03-08T15:22:19.103Z,49.80
2024-03-08T15:24:46.049Z,51.53
2024-03-08T15:27:13.178Z,51.77
2024-03-08T15:29:40.080Z,50.91
2024-03-08T15:32:07.956Z,51.15
2024-03-08T15:34:39.332Z,52.02
2024-03-08T15:37:06.332Z,51.41
2024-03-08T15:39:34.867Z,51.05
2024-03-08T15:42:01.937Z,52.02
2024-03-08T15:44:29.943Z,52.63
2024-03-08T15:46:56.967Z,52.75
2024-03-08T15:49:25.685Z,53.18
2024-03-08T15:51:52.442Z,52.56
2024-03-08T15:54:19.929Z,53.30
2024-03-08T15:56:46.741Z,52.95
2024-03-08T15:59:13.705Z,53.23
2024-03-08T16:01:40.859Z,54.11
2024-03-08T16:04:08.068Z,54.17
2024-03-08T16:06:37.621Z,53.79
2024-03-08T16:09:08.944Z,53.83
2024-03-08T16:11:39.240Z,53.94
2024-03-08T16:14:06.268Z,54.06
2024-03-08T16:16:33.313Z,54.29
2024-03-08T16:19:00.091Z,55.13
2024-03-08T16:21:28.233Z,55.12
2024-03-08T16:23:55.049Z,55.26
2024-03-08T16:26:24.267Z,55.66
2024-03-08T16:28:50.954Z,55.71
2024-03-08T16:31:17.663Z,56.18
2024-03-08T16:33:45.788Z,56.05
2024-03-08T16:36:14.921Z,56.43
2024-03-08T16:38:44.805Z,56.52
2024-03-08T16:41:13.440Z,56.93
2024-03-08T16:43:40.384Z,56.65
2024-03-08T16:46:07.809Z,56.91
2024-03-08T16:48:35.556Z,57.26
2024-03-08T16:51:02.435Z,57.81
2024-03-08T16:53:29.253Z,58.37
2024-03-08T16:55:58.669Z,58.54
2024-03-08T16:58:25.616Z,58.72
2024-03-08T17:00:52.456Z,59.20
2024-03-08T17:03:19.560Z,59.67
2024-03-08T17:05:47.170Z,59.14
2024-03-08T17:08:16.423Z,59.64
2024-03-08T17:10:44.619Z,60.64
2024-03-08T17:13:13.512Z,60.46
2024-03-08T17:15:40.682Z,60.25
2024-03-08T17:18:09.845Z,60.21
2024-03-08T17:20:38.290Z,60.34
2024-03-08T17:23:10.000Z,60.52
2024-03-08T17:25:39.097Z,60.47
2024-03-08T17:28:08.233Z,60.89
2024-03-08T17:30:39.446Z,61.07
2024-03-08T17:33:17.092Z,60.61
2024-03-08T17:35:45.913Z,61.56
2024-03-08T17:38:13.166Z,61.60
2024-03-08T17:40:42.614Z,62.46
2024-03-08T17:43:14.838Z,62.33
2024-03-08T17:45:46.473Z,62.64
2024-03-08T17:48:14.523Z,62.00
2024-03-08T17:50:42.764Z,62.21
2024-03-08T17:53:11.538Z,62.33
2024-03-08T17:55:41.959Z,62.14
2024-03-08T17:58:09.524Z,62.15
2024-03-08T18:00:36.885Z,62.04
2024-03-08T18:03:09.965Z,62.19
2024-03-08T18:05:38.278Z,61.94
2024-03-08T18:08:05.943Z,61.29
2024-03-08T18:10:35.425Z,61.22
2024-03-08T18:13:04.262Z,61.41
2024-03-08T18:15:34.986Z,61.15
2024-03-08T18:18:04.437Z,60.72
2024-03-08T18:20:33.574Z,61.02
2024-03-08T18:23:02.902Z,60.83
2024-03-08T18:25:33.802Z,61.16
2024-03-08T18:28:06.769Z,61.55
2024-03-08T18:30:34.201Z,62.43
2024-03-08T18:33:00.962Z,61.90
2024-03-08T18:35:27.689Z,62.20
2024-03-08T18:37:57.012Z,62.70
2024-03-08T18:40:24.837Z,62.74
2024-03-08T18:42:53.081Z,63.32
2024-03-08T18:45:22.942Z,64.03
2024-03-08T18:47:52.121Z,64.83
2024-03-08T18:50:22.365Z,64.47
2024-03-08T18:52:49.676Z,64.27
2024-03-08T18:55:22.558Z,64.66
2024-03-08T18:57:49.474Z,64.64
2024-03-08T19:00:24.799Z,64.84
2024-03-08T19:02:58.101Z,65.31
2024-03-08T19:05:28.966Z,65.39
2024-03-08T19:07:57.290Z,66.15
2024-03-08T19:10:26.399Z,66.11
2024-03-08T19:12:57.175Z,66.41
2024-03-08T19:15:24.888Z,67.14
2024-03-08T19:17:53.803Z,67.76
2024-03-08T19:20:25.625Z,68.22
2024-03-08T19:22:55.537Z,68.06
2024-03-08T19:25:26.166Z,70.96
2024-03-08T19:27:52.907Z,70.89
2024-03-08T19:30:22.204Z,69.94
2024-03-08T19:32:48.937Z,69.51
2024-03-08T19:35:19.671Z,69.78
2024-03-08T19:37:47.093Z,70.12
2024-03-08T19:40:23.879Z,69.15
2024-03-08T19:42:55.953Z,70.66
2024-03-08T19:45:27.358Z,70.54
2024-03-08T19:47:55.425Z,70.46
2024-03-08T19:50:22.582Z,70.90
2024-03-08T19:52:51.940Z,71.87
2024-03-08T19:55:21.405Z,72.87
2024-03-08T19:57:51.775Z,73.51
2024-03-08T20:00:27.080Z,72.54
2024-03-08T20:02:57.446Z,72.10
2024-03-08T20:05:26.011Z,71.75
2024-03-08T20:07:56.563Z,71.79
2024-03-08T20:10:25.205Z,70.84
2024-03-08T20:12:58.170Z,70.19
2024-03-08T20:15:26.471Z,70.31
2024-03-08T20:17:54.997Z,71.16
2024-03-08T20:20:23.341Z,71.33
2024-03-08T20:22:53.223Z,71.94
2024-03-08T20:25:22.670Z,71.90
2024-03-08T20:27:55.005Z,71.66
2024-03-08T20:30:28.089Z,74.25
2024-03-08T20:33:05.148Z,75.90
2024-03-08T20:35:36.569Z,75.55
2024-03-08T20:38:08.170Z,75.78
2024-03-08T20:40:46.464Z,75.64
2024-03-08T20:43:18.778Z,75.06
2024-03-08T20:45:45.851Z,74.08
2024-03-08T20:48:16.006Z,74.22
2024-03-08T20:50:43.710Z,73.73
2024-03-08T20:53:12.684Z,73.67
2024-03-08T20:55:49.923Z,74.04
2024-03-08T20:58:17.991Z,74.46
2024-03-08T21:00:55.145Z,75.23
2024-03-08T21:03:24.853Z,75.69
2024-03-08T21:05:52.395Z,75.10
2024-03-08T21:08:24.922Z,77.21
2024-03-08T21:10:55.227Z,77.97
2024-03-08T21:13:25.366Z,79.57
2024-03-08T21:15:56.008Z,78.98
2024-03-08T21:18:23.915Z,78.24
2024-03-08T21:20:50.841Z,77.53
2024-03-08T21:23:17.568Z,77.33
2024-03-08T21:25:44.834Z,76.32
2024-03-08T21:28:12.608Z,75.24
2024-03-08T21:30:40.809Z,74.66
2024-03-08T21:33:12.120Z,74.26
2024-03-08T21:35:40.596Z,76.63
2024-03-08T21:38:08.290Z,77.31
2024-03-08T21:40:37.278Z,77.30
2024-03-08T21:43:04.912Z,79.09
2024-03-08T21:45:32.798Z,79.18
2024-03-08T21:48:04.684Z,79.21
2024-03-08T21:50:34.586Z,79.90
2024-03-08T21:53:02.533Z,80.91
2024-03-08T21:55:31.380Z,80.00
2024-03-08T21:58:01.233Z,78.69
2024-03-08T22:00:33.737Z,79.54
2024-03-08T22:03:03.869Z,78.69
2024-03-08T22:05:30.957Z,77.46
2024-03-08T22:07:58.457Z,76.02
2024-03-08T22:10:27.972Z,75.22
2024-03-08T22:12:56.778Z,75.16
2024-03-08T22:15:25.524Z,75.58
2024-03-08T22:17:57.752Z,75.49
2024-03-08T22:20:32.739Z,78.86
2024-03-08T22:23:01.257Z,78.31
2024-03-08T22:25:28.827Z,78.92
2024-03-08T22:27:55.768Z,80.07
2024-03-08T22:30:24.734Z,80.70
2024-03-08T22:32:55.780Z,80.09
2024-03-08T22:35:25.539Z,78.47
2024-03-08T22:37:53.116Z,77.91
2024-03-08T22:40:25.594Z,77.65
2024-03-08T22:42:53.261Z,77.63
2024-03-08T22:45:20.276Z,78.23
2024-03-08T22:47:47.802Z,78.67
2024-03-08T22:50:17.288Z,79.87
2024-03-08T22:52:46.236Z,80.44
2024-03-08T22:55:14.155Z,80.98
2024-03-08T22:57:41.497Z,81.73
2024-03-08T23:00:38.333Z,80.61
2024-03-08T23:03:11.794Z,80.08
2024-03-08T23:05:42.278Z,78.69
2024-03-08T23:08:09.553Z,79.22
2024-03-08T23:10:40.254Z,80.07
2024-03-08T23:13:07.444Z,80.03
2024-03-08T23:15:34.204Z,79.77
2024-03-08T23:18:01.018Z,79.20
2024-03-08T23:20:34.266Z,78.73
2024-03-08T23:23:05.424Z,79.68
2024-03-08T23:25:33.725Z,78.79
2024-03-08T23:28:07.770Z,78.72
2024-03-08T23:30:40.584Z,78.89
2024-03-08T23:33:10.206Z,79.20
2024-03-08T23:35:41.855Z,78.32
2024-03-08T23:38:09.194Z,78.35
2024-03-08T23:40:36.098Z,78.09
2024-03-08T23:43:04.853Z,77.57
2024-03-08T23:45:31.624Z,77.77
2024-03-08T23:48:00.707Z,81.18
2024-03-08T23:50:31.526Z,82.32
2024-03-08T23:53:01.425Z,81.30
2024-03-08T23:55:30.994Z,81.24
2024-03-08T23:57:59.359Z,80.92
